Share

Tabarka, Tunisia

Rabah Bitat (DABB) Elev 13 ft | 36.82 °N, 7.81 °E | Change Station

Current weather conditions updated 28 minutes ago

Scattered Clouds
Scattered Clouds
59 °F
Feels Like 59 °F
N
2
Wind Variable Wind from SSE
Sunrise 5:44 AM
Sunset 7:03 PM
Moon Waning Gibbous

Today is forecast to be Cooler than yesterday.

Pressure 29.74 in
Visibility 5.0 miles
Clouds Few 4600 ft
Scattered Clouds 10000 ft
Dew Point 57 °F
Humidity 94%
Rainfall 0.00 in
Snow Depth Not available.
UV 0 out of 16
Pollen Not available.
Air Quality Not available.
Flu Activity Not available.
METAR DABB 192330Z 15002KT 8000 FEW046 SCT100 15/14 Q1007

More Conditions Fewer Conditions

Pressure 29.74 in
Visibility 5.0 miles
Clouds Few 4600 ft
Scattered Clouds 10000 ft
Dew Point 57 °F
Humidity 94%
Rainfall 0.00 in
Snow Depth Not available.
UV 0 out of 16
Pollen Not available.
Air Quality Not available.
Flu Activity Not available.
METAR DABB 192330Z 15002KT 8000 FEW046 SCT100 15/14 Q1007

More Conditions Fewer Conditions

10-Day Weather Forecast

Almanac

Astronomy

Apr. 20, 2014 Rise Set
Actual Time 5:44 AM CET 7:03 PM CET
Civil Twilight 5:17 AM CET 7:31 PM CET
Nautical Twilight 4:45 AM CET 8:03 PM CET
Astronomical Twilight 4:11 AM CET 8:37 PM CET
Moon No Moon Rise 9:50 AM CET (4/20)
Length of Visible Light 14h 13m
Length of Day
13h 19m
Tomorrow will be 2m 11s longer.
Waning Gibbous, 75% of the Moon is Illuminated
Apr 19
Waning Gibbous
Apr 22
Last Quarter
Apr 29
New
May 6
First Quarter
May 14
Full

Yesterday's Extremes

Country Highs Country Lows

Community

  • New Day
    New Day
  • Happy Easter!
    Happy Easter!
  • poppy bloom near Mazar-e-Sharif
    poppy bloom near Mazar-e-Sharif
  • Happy Easter WU friends!!!!
    Happy Easter WU friends!!!!
  • Skirting the Horizon
    Skirting the Horizon

WunderPhotos

Upload Photos

1,702,967 photos uploaded!

WunderBlogs® & News

Nearby

Snow Depth

Not available.

Coastal Water Temperatures

Place Temperature
No Stations Reporting

Earthquake Activity

City Distance Mag. Time & Date
No recent earthquake activity has been reported nearby.
Minimum magnitude displayed is 2.5.

Nearby Weather Stations

There are no personal weather stations in this area.

What do you think?

We're not finished. Please let us know what you like, what you don't like, and what you are still missing.